Weather observations for the past three days for
Waterloo, Waterloo Municipal Airport
Imperial (Metric)
Date Time (cdt) Wind (mph) Vis. (mi.) Weather Sky Cond. Temperature (ºF) Relative Humidity Wind Chill (°F) Heat Index (°F) Pressure Precipitation (in)
Air Dwpt 6 hour altimeter (in) sea level (mb) 1 hr 3 hr 6 hr
Max. Min.
10 14:54 W 15 G 26 10.00 Mostly Cloudy BKN100 66.9 26.1 21% 30.08 1019.0
10 13:54 W 14 G 28 10.00 Partly Cloudy SCT100 68 26.1 21% 30.1 1019.4
10 12:54 NW 20 G 26 10.00 Mostly Cloudy BKN100 66 25 66.9 39.9 21% 30.12 1020.1
10 11:54 W 15 G 25 10.00 A Few Clouds FEW085 64 26.1 24% 30.14 1020.6
10 10:54 W 9 G 20 10.00 Fair CLR 62.1 27 26% 30.12 1020.2
10 09:54 W 10 10.00 Fair CLR 59 27 29% 30.12 1020.2
10 08:54 W 5 10.00 Fair CLR 54 30 40% 30.12 1020.2
10 07:54 NW 5 10.00 Fair CLR 46.9 28.9 50% 45 30.12 1020.0
10 06:54 W 3 10.00 Fair CLR 39.9 28.9 44.1 35.1 65% 30.1 1019.5
10 05:54 NW 3 10.00 Fair CLR 39 26.1 60% 30.08 1018.9
10 04:54 SW 5 10.00 Fair CLR 37.9 27 65% 35 30.07 1018.6
10 03:54 NW 6 10.00 Fair CLR 39.9 26.1 58% 36 30.06 1017.9
10 02:54 NW 6 10.00 Fair CLR 37 27 67% 33 30.03 1017.1
10 01:54 NW 7 10.00 Fair CLR 44.1 25 47% 41 30.01 1016.4
10 00:54 NW 7 10.00 Fair CLR 44.1 25 63 44.1 47% 41 30 1015.9
09 23:54 NW 7 10.00 Fair CLR 46 25 44% 43 29.97 1015.0
09 22:54 NW 8 10.00 Fair CLR 46.9 25 42% 44 29.95 1014.3
09 21:54 NW 10 10.00 Fair CLR 48 25 41% 44 29.92 1013.4
09 20:54 NW 9 10.00 Fair CLR 53.1 23 31% 29.89 1012.2
09 19:54 NW 15 10.00 Fair CLR 61 21.9 22% 29.85 1010.8
09 18:54 NW 18 G 25 10.00 Fair CLR 63 24.1 70 63 23% 29.82 1010.0
09 17:54 NW 18 G 29 10.00 Fair CLR 64.9 26.1 23% 29.8 1009.3
09 16:54 NW 21 G 35 10.00 Fair and Breezy CLR 68 28 22% 29.78 1008.5
09 15:54 NW 18 G 32 10.00 Fair CLR 69.1 30.9 24% 29.77 1007.9
09 14:54 NW 21 G 32 10.00 Fair and Breezy CLR 69.1 34 27% 29.76 1007.5
09 13:54 NW 20 G 32 10.00 Fair CLR 69.1 35.1 29% 29.74 1006.8
09 12:54 NW 16 G 31 10.00 Mostly Cloudy FEW050 BKN100 64.9 41 66.9 46 42% 29.74 1007.0
09 11:54 NW 20 G 29 10.00 Overcast OVC100 64 42.1 45% 29.73 1006.6
09 10:54 NW 17 G 25 10.00 Partly Cloudy SCT100 64 39 40% 29.73 1006.4
09 09:54 NW 12 10.00 A Few Clouds FEW110 64 35.1 34% 29.71 1005.7
09 08:54 W 15 10.00 A Few Clouds FEW120 60.1 33.1 36% 29.71 1005.7
09 07:54 W 3 10.00 Fair CLR 57 34 42% 29.68 1004.8
09 06:54 SW 3 10.00 Fair CLR 46 35.1 57.9 42.1 66% 29.65 1004.0
09 05:54 SW 6 10.00 Fair CLR 44.1 33.1 65% 41 29.64 1003.6
09 04:54 Calm 10.00 Fair CLR 46 35.1 66% 29.66 1004.1
09 03:54 SW 3 10.00 Fair CLR 48.9 36 61% 29.65 1003.7
09 02:54 SW 5 10.00 Fair CLR 48 36 63% 47 29.64 1003.7
09 01:54 NW 6 10.00 A Few Clouds FEW110 55 34 45% 29.64 1003.5
09 00:54 NW 6 10.00 A Few Clouds FEW120 57 36 71.1 55.9 45% 29.65 1003.7
08 23:54 W 7 10.00 A Few Clouds FEW120 62.1 36 38% 29.64 1003.5
08 22:54 NW 6 10.00 Mostly Cloudy BKN120 60.1 36 41% 29.63 1003.2
08 21:54 SW 10 10.00 Mostly Cloudy FEW090 BKN110 68 34 28% 29.62 1002.9
08 20:54 W 14 G 21 10.00 Mostly Cloudy BKN110 69.1 30.9 24% 29.61 1002.4
08 19:54 SW 5 10.00 Mostly Cloudy BKN110 70 30 23% 29.61 1002.5
08 18:54 W 6 10.00 Partly Cloudy SCT120 71.1 30 75 69.1 22% 29.62 1003.0
08 17:54 W 10 10.00 A Few Clouds FEW120 73.9 27 17% 29.63 1003.5
08 16:54 W 14 G 22 10.00 A Few Clouds FEW120 75 26.1 16% 76 29.65 1004.0
08 15:54 W 10 G 25 10.00 Fair CLR 73.9 27 17% 29.66 1004.6
08 14:54 W 12 G 20 10.00 Fair CLR 73 27 18% 29.7 1005.7
08 13:54 SW 7 10.00 Fair CLR 72 28.9 20% 29.72 1006.4
08 12:54 Vrbl 5 G 18 10.00 Fair CLR 69.1 28 70 37 22% 29.74 1007.2
08 11:54 Calm 10.00 Fair CLR 68 27 21% 29.78 1008.3
08 10:54 S 8 10.00 Fair CLR 64 34 33% 29.79 1008.9
08 09:54 SW 6 10.00 Fair CLR 59 36 42% 29.81 1009.7
08 08:54 SE 5 10.00 Fair CLR 52 30.9 45% 29.82 1009.9
08 07:54 Calm 10.00 Fair CLR 46 32 58% 29.82 1010.1
08 06:54 Calm 10.00 Fair CLR 37 30 46 34 76% 29.83 1010.3
08 05:54 Calm 10.00 Fair CLR 36 28 73% 29.82 1009.9
08 04:54 NE 3 10.00 Fair CLR 35.1 27 72% 29.81 1009.9
08 03:54 E 6 10.00 Fair CLR 37 26.1 65% 33 29.82 1009.9
08 02:54 E 3 10.00 Fair CLR 37.9 26.1 62% 29.83 1010.2
08 01:54 Calm 10.00 Fair CLR 42.1 25 51% 29.84 1010.6
08 00:54 SE 5 10.00 Fair CLR 45 24.1 63 43 44% 43 29.85 1010.9
07 23:54 Calm 10.00 Partly Cloudy SCT090 46 24.1 42% 29.85 1011.2
07 22:54 Calm 10.00 A Few Clouds FEW090 46.9 25 42% 29.86 1011.2
07 21:54 NE 5 10.00 Fair CLR 44.1 28 53% 42 29.85 1010.9
07 20:54 N 8 10.00 Fair CLR 51.1 26.1 38% 29.82 1010.0
07 19:54 N 6 10.00 Fair CLR 57.9 25 28% 29.8 1009.4
07 18:54 NW 12 10.00 Fair CLR 63 24.1 66 61 23% 29.79 1009.1
07 17:54 NW 14 10.00 Fair CLR 64.9 25 22% 29.8 1009.3
07 16:54 N 9 G 23 10.00 Fair CLR 64 25 23% 29.81 1009.5
07 15:54 NW 18 G 25 10.00 Fair CLR 64 25 23% 29.81 1009.7
Date Time (cdt) Wind (mph) Vis. (mi.) Weather Sky Cond. Air Dwpt Max. Min. Relative Humidity Wind Chill (°F) Heat Index (°F) altimeter (in) sea level (mb) 1 hr 3 hr 6 hr
6 hour
Temperature (ºF) Pressure Precipitation (in)